Bay Bridge — 3FCS5 — position and weather

sailwx.info

Track history (hours):
 
Tides and Currents Weather Stations Pressure Air Temp Water Temp Dewpoint Dewpoint Depression Visibility Wind Speed Wind Dir Waves Ship Positions

Bay Bridge

Last reported at 2014-Oct-16 09:16 UTC. Time now 2014-Oct-25 22:14 UTC.
Position N 38°39' W 124°15'.
Warning: this ship's position is 9 days out of date.

Length 267 m; draft 11.2 m.

Type: Ship (hazmat cat A). MMSI: 354120000.

Date/timePositionNaut miles runAvg speedWind from/ knotsBaromVisibWave heightAir tempDewpointWater temp
2014-Oct-16 09:16N 38°39' W 124°15'1318.4
2014-Oct-16 08:33N 38°30' W 124°03'1817.9
2014-Oct-16 07:33N 38°18' W 123°46'1716.7
2014-Oct-16 06:33N 38°09' W 123°28'1515.5
2014-Oct-16 05:33N 38°01' W 123°11'1717.2
2014-Oct-16 04:33N 37°52' W 122°53'1413.8
2014-Oct-16 03:33N 37°46' W 122°37'1211.6
2014-Oct-16 02:33N 37°48' W 122°22'3 2.5
2014-Oct-16 01:32N 37°49' W 122°19'0 0.0
2014-Oct-16 00:32N 37°49' W 122°19'0 0.0
2014-Oct-15 23:32N 37°49' W 122°19'0 0.0
2014-Oct-15 22:32N 37°49' W 122°19'0 0.0
2014-Oct-15 21:32N 37°49' W 122°19'0 0.0
2014-Oct-15 20:32N 37°49' W 122°19'0 0.0
2014-Oct-15 19:32N 37°49' W 122°19'0 0.0
2014-Oct-15 18:32N 37°49' W 122°19'0 0.0
2014-Oct-15 17:32N 37°49' W 122°19'0 0.0
2014-Oct-15 16:32N 37°49' W 122°19'0 0.0
2014-Oct-15 15:32N 37°49' W 122°19'0 0.0
2014-Oct-15 14:32N 37°49' W 122°19'0 0.2
2014-Oct-15 13:33N 37°49' W 122°19'3 3.1
2014-Oct-15 12:33N 37°48' W 122°23'1212.1
2014-Oct-15 11:33N 37°46' W 122°38'1110.7
2014-Oct-15 10:34N 37°39' W 122°49'1111.0
2014-Oct-15 09:34N 37°33' W 123°01'1211.8
2014-Oct-15 08:33N 37°22' W 123°01'1919.3
2014-Oct-15 07:33N 37°03' W 122°56'2019.3
2014-Oct-15 06:32N 36°45' W 122°46'1919.8
2014-Oct-15 05:33N 36°27' W 122°36'2019.7
2014-Oct-15 04:33N 36°09' W 122°26'2019.5
2014-Oct-15 03:33N 35°53' W 122°12'2019.7
2014-Oct-15 02:33N 35°37' W 121°57'2020.0
2014-Oct-15 01:32N 35°21' W 121°43'3919.8
2014-Oct-14 23:33N 34°49' W 121°14'5618.9
2014-Oct-14 20:33N 34°18' W 120°17'1919.1
2014-Oct-14 19:33N 34°13' W 119°55'1818.4
2014-Oct-14 18:33N 34°08' W 119°33'1918.6
2014-Oct-14 17:32N 34°02' W 119°11'3812.7
2014-Oct-14 14:33N 33°44' W 118°32'1211.6
2014-Oct-14 13:33N 33°38' W 118°19'9 8.6
2014-Oct-14 12:33N 33°44' W 118°11'1 1.0
2014-Oct-14 11:31N 33°45' W 118°12'0 0.1
2014-Oct-14 10:34N 33°45' W 118°12'0 0.0
2014-Oct-14 09:31N 33°45' W 118°12'0 0.0
2014-Oct-14 08:34N 33°45' W 118°12'0 0.0
2014-Oct-14 07:31N 33°45' W 118°12'0 0.1
2014-Oct-14 06:31N 33°45' W 118°12'0 0.1
2014-Oct-14 05:34N 33°45' W 118°12'0 0.0
2014-Oct-14 04:31N 33°45' W 118°12'0 0.0
2014-Oct-14 03:30N 33°45' W 118°12'0 0.0
2014-Oct-14 02:31N 33°45' W 118°12'0 0.1
2014-Oct-14 01:30N 33°45' W 118°12'0 0.0
2014-Oct-14 00:34N 33°45' W 118°12'0 0.0
2014-Oct-13 23:31N 33°45' W 118°12'0 0.0
2014-Oct-13 22:33N 33°45' W 118°12'0 0.0
2014-Oct-13 21:31N 33°45' W 118°12'0 0.1
2014-Oct-13 20:34N 33°45' W 118°12'0 0.0
2014-Oct-13 19:34N 33°45' W 118°12'0 0.0
2014-Oct-13 18:34N 33°45' W 118°12'0 0.0
2014-Oct-13 17:34N 33°45' W 118°12'0 0.0
2014-Oct-13 16:30N 33°45' W 118°12'0 0.1
2014-Oct-13 15:33N 33°45' W 118°12'0 0.0
2014-Oct-13 14:33N 33°45' W 118°12'0 0.0
2014-Oct-13 13:33N 33°45' W 118°12'0 0.0
2014-Oct-13 12:33N 33°45' W 118°12'0 0.0
2014-Oct-13 11:34N 33°45' W 118°12'0 0.0
2014-Oct-13 10:33N 33°45' W 118°12'0 0.1
2014-Oct-13 09:33N 33°45' W 118°12'0 0.0
2014-Oct-13 08:34N 33°45' W 118°12'0 0.0
2014-Oct-13 07:33N 33°45' W 118°12'0 0.0
2014-Oct-13 06:33N 33°45' W 118°12'0 0.0
2014-Oct-13 05:34N 33°45' W 118°12'0 0.0
2014-Oct-13 04:33N 33°45' W 118°12'0 0.1
2014-Oct-13 03:33N 33°45' W 118°12'0 0.0
2014-Oct-13 02:30N 33°45' W 118°12'0 0.1
2014-Oct-13 01:33N 33°45' W 118°12'0 0.1
2014-Oct-13 00:33N 33°45' W 118°12'0 0.1
2014-Oct-12 23:34N 33°45' W 118°12'0 0.1
2014-Oct-12 22:33N 33°45' W 118°12'0 0.0
2014-Oct-12 21:33N 33°45' W 118°12'0 0.0
2014-Oct-12 20:33N 33°45' W 118°12'0 0.0
2014-Oct-12 19:33N 33°45' W 118°12'0 0.0
2014-Oct-12 18:33N 33°45' W 118°12'0 0.0
2014-Oct-12 17:33N 33°45' W 118°12'0 0.0
2014-Oct-12 16:33N 33°45' W 118°12'0 0.0
2014-Oct-12 15:33N 33°45' W 118°12'0 0.0
2014-Oct-12 14:33N 33°45' W 118°12'0 0.0
2014-Oct-12 13:33N 33°45' W 118°12'0 0.0
2014-Oct-12 12:33N 33°45' W 118°12'0 0.0
2014-Oct-12 11:33N 33°45' W 118°12'0 0.0
2014-Oct-12 10:33N 33°45' W 118°12'0 0.0
2014-Oct-12 09:33N 33°45' W 118°12'0 0.0
2014-Oct-12 08:33N 33°45' W 118°12'0 0.0
2014-Oct-12 07:33N 33°45' W 118°12'0 0.0
2014-Oct-12 06:33N 33°45' W 118°12'0 0.0
2014-Oct-12 05:33N 33°45' W 118°12'0 0.0
2014-Oct-12 04:30N 33°45' W 118°12'0 0.0
2014-Oct-12 03:33N 33°45' W 118°12'0 0.1
2014-Oct-12 02:33N 33°45' W 118°12'0 0.0
2014-Oct-12 01:33N 33°45' W 118°12'0 0.1
2014-Oct-12 00:33N 33°45' W 118°12'0 0.1
2014-Oct-11 23:33N 33°45' W 118°12'0 0.0
2014-Oct-11 22:33N 33°45' W 118°12'0 0.0
2014-Oct-11 21:33N 33°45' W 118°12'0 0.0
2014-Oct-11 20:33N 33°45' W 118°12'0 0.0
2014-Oct-11 19:33N 33°45' W 118°12'0 0.0
2014-Oct-11 18:33N 33°45' W 118°12'0 0.0
2014-Oct-11 17:33N 33°45' W 118°12'0 0.0
2014-Oct-11 16:33N 33°45' W 118°12'0 0.1
2014-Oct-11 15:33N 33°45' W 118°12'0 0.0
2014-Oct-11 14:33N 33°45' W 118°12'0 0.0
2014-Oct-11 13:33N 33°45' W 118°12'0 0.1
2014-Oct-11 12:33N 33°45' W 118°12'0 0.0
2014-Oct-11 11:33N 33°45' W 118°12'0 0.0
2014-Oct-11 10:33N 33°45' W 118°12'0 0.0
2014-Oct-11 09:33N 33°45' W 118°12'0 0.0
2014-Oct-11 08:33N 33°45' W 118°12'0 0.1
2014-Oct-11 07:33N 33°45' W 118°12'0 0.0
2014-Oct-11 06:33N 33°45' W 118°12'0 0.0
2014-Oct-11 05:30N 33°45' W 118°12'0 0.1
2014-Oct-11 04:33N 33°45' W 118°12'0 0.1
2014-Oct-11 03:33N 33°45' W 118°12'0 0.1
2014-Oct-11 02:33N 33°45' W 118°12'0 0.1
2014-Oct-11 01:33N 33°45' W 118°12'0 0.0
2014-Oct-11 00:33N 33°45' W 118°12'0 0.0
2014-Oct-10 23:33N 33°45' W 118°12'0 0.0
2014-Oct-10 22:30N 33°45' W 118°12'3 3.1
2014-Oct-10 21:33N 33°42' W 118°11'9 8.9
2014-Oct-10 20:33N 33°36' W 118°19'1211.4
2014-Oct-10 19:32N 33°41' W 118°31'1111.4
2014-Oct-10 18:33N 33°47' W 118°43'1111.5
2014-Oct-10 17:33N 33°52' W 118°55'1110.3
2014-Oct-10 16:31N 33°57' W 119°06'2612.7
2014-Oct-10 14:25N 34°07' W 119°36'1112.8
2014-Oct-10 13:33N 34°10' W 119°49'1313.0
2014-Oct-10 12:33N 34°13' W 120°04'1312.9
2014-Oct-10 11:33N 34°17' W 120°19'1312.8
2014-Oct-10 10:33N 34°20' W 120°34'1515.0
2014-Oct-10 09:33N 34°24' W 120°51'2018.6
2014-Oct-10 08:29N 34°35' W 121°12'1918.8
2014-Oct-10 07:27N 34°46' W 121°31'1719.0
2014-Oct-10 06:33N 34°56' W 121°47'1919.5
2014-Oct-10 05:33N 35°07' W 122°07'1919.3
2014-Oct-10 04:33N 35°18' W 122°27'1919.0
2014-Oct-10 03:33N 35°30' W 122°45'2020.0
2014-Oct-10 02:33N 35°42' W 123°04'2019.9
2014-Oct-10 01:33N 35°55' W 123°23'2019.9
2014-Oct-10 00:33N 36°07' W 123°43'2520.0
2014-Oct-09 23:19N 36°22' W 124°07'1520.0
2014-Oct-09 22:33N 36°32' W 124°22'2020.2
2014-Oct-09 21:33N 36°44' W 124°42'2020.5
2014-Oct-09 20:33N 36°56' W 125°02'2120.5
2014-Oct-09 19:33N 37°09' W 125°22'2520.4
2014-Oct-09 18:19N 37°25' W 125°47'1720.4
2014-Oct-09 17:30N 37°35' W 126°04'2020.3
2014-Oct-09 16:32N 37°47' W 126°24'2020.6
2014-Oct-09 15:33N 37°59' W 126°44'2120.8
2014-Oct-09 14:33N 38°12' W 127°05'2120.8
2014-Oct-09 13:33N 38°25' W 127°25'2121.0
2014-Oct-09 12:33N 38°38' W 127°47'2220.8
2014-Oct-09 11:29N 38°51' W 128°09'2021.0
2014-Oct-09 10:33N 39°03' W 128°30'2621.3
2014-Oct-09 09:19N 39°17' W 128°58'2021.2
2014-Oct-09 08:23N 39°27' W 129°20'  
Track history (hours):
 
Tides and Currents Weather Stations Pressure Air Temp Water Temp Dewpoint Dewpoint Depression Visibility Wind Speed Wind Dir Waves Ship Positions

Bay Bridge

Last reported at 2014-Oct-16 09:16 UTC. Time now 2014-Oct-25 22:14 UTC.
Position N 38°39' W 124°15'.
Warning: this ship's position is 9 days out of date.

Length 267 m; draft 11.2 m.

Type: Ship (hazmat cat A). MMSI: 354120000.

Date/timePositionNaut miles runAvg speedWind from/ knotsBaromVisibWave heightAir tempDewpointWater temp
2014-Oct-16 09:16N 38°39' W 124°15'1318.4
2014-Oct-16 08:33N 38°30' W 124°03'1817.9
2014-Oct-16 07:33N 38°18' W 123°46'1716.7
2014-Oct-16 06:33N 38°09' W 123°28'1515.5
2014-Oct-16 05:33N 38°01' W 123°11'1717.2
2014-Oct-16 04:33N 37°52' W 122°53'1413.8
2014-Oct-16 03:33N 37°46' W 122°37'1211.6
2014-Oct-16 02:33N 37°48' W 122°22'3 2.5
2014-Oct-16 01:32N 37°49' W 122°19'0 0.0
2014-Oct-16 00:32N 37°49' W 122°19'0 0.0
2014-Oct-15 23:32N 37°49' W 122°19'0 0.0
2014-Oct-15 22:32N 37°49' W 122°19'0 0.0
2014-Oct-15 21:32N 37°49' W 122°19'0 0.0
2014-Oct-15 20:32N 37°49' W 122°19'0 0.0
2014-Oct-15 19:32N 37°49' W 122°19'0 0.0
2014-Oct-15 18:32N 37°49' W 122°19'0 0.0
2014-Oct-15 17:32N 37°49' W 122°19'0 0.0
2014-Oct-15 16:32N 37°49' W 122°19'0 0.0
2014-Oct-15 15:32N 37°49' W 122°19'0 0.0
2014-Oct-15 14:32N 37°49' W 122°19'0 0.2
2014-Oct-15 13:33N 37°49' W 122°19'3 3.1
2014-Oct-15 12:33N 37°48' W 122°23'1212.1
2014-Oct-15 11:33N 37°46' W 122°38'1110.7
2014-Oct-15 10:34N 37°39' W 122°49'1111.0
2014-Oct-15 09:34N 37°33' W 123°01'1211.8
2014-Oct-15 08:33N 37°22' W 123°01'1919.3
2014-Oct-15 07:33N 37°03' W 122°56'2019.3
2014-Oct-15 06:32N 36°45' W 122°46'1919.8
2014-Oct-15 05:33N 36°27' W 122°36'2019.7
2014-Oct-15 04:33N 36°09' W 122°26'2019.5
2014-Oct-15 03:33N 35°53' W 122°12'2019.7
2014-Oct-15 02:33N 35°37' W 121°57'2020.0
2014-Oct-15 01:32N 35°21' W 121°43'3919.8
2014-Oct-14 23:33N 34°49' W 121°14'5618.9
2014-Oct-14 20:33N 34°18' W 120°17'1919.1
2014-Oct-14 19:33N 34°13' W 119°55'1818.4
2014-Oct-14 18:33N 34°08' W 119°33'1918.6
2014-Oct-14 17:32N 34°02' W 119°11'3812.7
2014-Oct-14 14:33N 33°44' W 118°32'1211.6
2014-Oct-14 13:33N 33°38' W 118°19'9 8.6
2014-Oct-14 12:33N 33°44' W 118°11'1 1.0
2014-Oct-14 11:31N 33°45' W 118°12'0 0.1
2014-Oct-14 10:34N 33°45' W 118°12'0 0.0
2014-Oct-14 09:31N 33°45' W 118°12'0 0.0
2014-Oct-14 08:34N 33°45' W 118°12'0 0.0
2014-Oct-14 07:31N 33°45' W 118°12'0 0.1
2014-Oct-14 06:31N 33°45' W 118°12'0 0.1
2014-Oct-14 05:34N 33°45' W 118°12'0 0.0
2014-Oct-14 04:31N 33°45' W 118°12'0 0.0
2014-Oct-14 03:30N 33°45' W 118°12'0 0.0
2014-Oct-14 02:31N 33°45' W 118°12'0 0.1
2014-Oct-14 01:30N 33°45' W 118°12'0 0.0
2014-Oct-14 00:34N 33°45' W 118°12'0 0.0
2014-Oct-13 23:31N 33°45' W 118°12'0 0.0
2014-Oct-13 22:33N 33°45' W 118°12'0 0.0
2014-Oct-13 21:31N 33°45' W 118°12'0 0.1
2014-Oct-13 20:34N 33°45' W 118°12'0 0.0
2014-Oct-13 19:34N 33°45' W 118°12'0 0.0
2014-Oct-13 18:34N 33°45' W 118°12'0 0.0
2014-Oct-13 17:34N 33°45' W 118°12'0 0.0
2014-Oct-13 16:30N 33°45' W 118°12'0 0.1
2014-Oct-13 15:33N 33°45' W 118°12'0 0.0
2014-Oct-13 14:33N 33°45' W 118°12'0 0.0
2014-Oct-13 13:33N 33°45' W 118°12'0 0.0
2014-Oct-13 12:33N 33°45' W 118°12'0 0.0
2014-Oct-13 11:34N 33°45' W 118°12'0 0.0
2014-Oct-13 10:33N 33°45' W 118°12'0 0.1
2014-Oct-13 09:33N 33°45' W 118°12'0 0.0
2014-Oct-13 08:34N 33°45' W 118°12'0 0.0
2014-Oct-13 07:33N 33°45' W 118°12'0 0.0
2014-Oct-13 06:33N 33°45' W 118°12'0 0.0
2014-Oct-13 05:34N 33°45' W 118°12'0 0.0
2014-Oct-13 04:33N 33°45' W 118°12'0 0.1
2014-Oct-13 03:33N 33°45' W 118°12'0 0.0
2014-Oct-13 02:30N 33°45' W 118°12'0 0.1
2014-Oct-13 01:33N 33°45' W 118°12'0 0.1
2014-Oct-13 00:33N 33°45' W 118°12'0 0.1
2014-Oct-12 23:34N 33°45' W 118°12'0 0.1
2014-Oct-12 22:33N 33°45' W 118°12'0 0.0
2014-Oct-12 21:33N 33°45' W 118°12'0 0.0
2014-Oct-12 20:33N 33°45' W 118°12'0 0.0
2014-Oct-12 19:33N 33°45' W 118°12'0 0.0
2014-Oct-12 18:33N 33°45' W 118°12'0 0.0
2014-Oct-12 17:33N 33°45' W 118°12'0 0.0
2014-Oct-12 16:33N 33°45' W 118°12'0 0.0
2014-Oct-12 15:33N 33°45' W 118°12'0 0.0
2014-Oct-12 14:33N 33°45' W 118°12'0 0.0
2014-Oct-12 13:33N 33°45' W 118°12'0 0.0
2014-Oct-12 12:33N 33°45' W 118°12'0 0.0
2014-Oct-12 11:33N 33°45' W 118°12'0 0.0
2014-Oct-12 10:33N 33°45' W 118°12'0 0.0
2014-Oct-12 09:33N 33°45' W 118°12'0 0.0
2014-Oct-12 08:33N 33°45' W 118°12'0 0.0
2014-Oct-12 07:33N 33°45' W 118°12'0 0.0
2014-Oct-12 06:33N 33°45' W 118°12'0 0.0
2014-Oct-12 05:33N 33°45' W 118°12'0 0.0
2014-Oct-12 04:30N 33°45' W 118°12'0 0.0
2014-Oct-12 03:33N 33°45' W 118°12'0 0.1
2014-Oct-12 02:33N 33°45' W 118°12'0 0.0
2014-Oct-12 01:33N 33°45' W 118°12'0 0.1
2014-Oct-12 00:33N 33°45' W 118°12'0 0.1
2014-Oct-11 23:33N 33°45' W 118°12'0 0.0
2014-Oct-11 22:33N 33°45' W 118°12'0 0.0
2014-Oct-11 21:33N 33°45' W 118°12'0 0.0
2014-Oct-11 20:33N 33°45' W 118°12'0 0.0
2014-Oct-11 19:33N 33°45' W 118°12'0 0.0
2014-Oct-11 18:33N 33°45' W 118°12'0 0.0
2014-Oct-11 17:33N 33°45' W 118°12'0 0.0
2014-Oct-11 16:33N 33°45' W 118°12'0 0.1
2014-Oct-11 15:33N 33°45' W 118°12'0 0.0
2014-Oct-11 14:33N 33°45' W 118°12'0 0.0
2014-Oct-11 13:33N 33°45' W 118°12'0 0.1
2014-Oct-11 12:33N 33°45' W 118°12'0 0.0
2014-Oct-11 11:33N 33°45' W 118°12'0 0.0
2014-Oct-11 10:33N 33°45' W 118°12'0 0.0
2014-Oct-11 09:33N 33°45' W 118°12'0 0.0
2014-Oct-11 08:33N 33°45' W 118°12'0 0.1
2014-Oct-11 07:33N 33°45' W 118°12'0 0.0
2014-Oct-11 06:33N 33°45' W 118°12'0 0.0
2014-Oct-11 05:30N 33°45' W 118°12'0 0.1
2014-Oct-11 04:33N 33°45' W 118°12'0 0.1
2014-Oct-11 03:33N 33°45' W 118°12'0 0.1
2014-Oct-11 02:33N 33°45' W 118°12'0 0.1
2014-Oct-11 01:33N 33°45' W 118°12'0 0.0
2014-Oct-11 00:33N 33°45' W 118°12'0 0.0
2014-Oct-10 23:33N 33°45' W 118°12'0 0.0
2014-Oct-10 22:30N 33°45' W 118°12'3 3.1
2014-Oct-10 21:33N 33°42' W 118°11'9 8.9
2014-Oct-10 20:33N 33°36' W 118°19'1211.4
2014-Oct-10 19:32N 33°41' W 118°31'1111.4
2014-Oct-10 18:33N 33°47' W 118°43'1111.5
2014-Oct-10 17:33N 33°52' W 118°55'1110.3
2014-Oct-10 16:31N 33°57' W 119°06'2612.7
2014-Oct-10 14:25N 34°07' W 119°36'1112.8
2014-Oct-10 13:33N 34°10' W 119°49'1313.0
2014-Oct-10 12:33N 34°13' W 120°04'1312.9
2014-Oct-10 11:33N 34°17' W 120°19'1312.8
2014-Oct-10 10:33N 34°20' W 120°34'1515.0
2014-Oct-10 09:33N 34°24' W 120°51'2018.6
2014-Oct-10 08:29N 34°35' W 121°12'1918.8
2014-Oct-10 07:27N 34°46' W 121°31'1719.0
2014-Oct-10 06:33N 34°56' W 121°47'1919.5
2014-Oct-10 05:33N 35°07' W 122°07'1919.3
2014-Oct-10 04:33N 35°18' W 122°27'1919.0
2014-Oct-10 03:33N 35°30' W 122°45'2020.0
2014-Oct-10 02:33N 35°42' W 123°04'2019.9
2014-Oct-10 01:33N 35°55' W 123°23'2019.9
2014-Oct-10 00:33N 36°07' W 123°43'2520.0
2014-Oct-09 23:19N 36°22' W 124°07'1520.0
2014-Oct-09 22:33N 36°32' W 124°22'2020.2
2014-Oct-09 21:33N 36°44' W 124°42'2020.5
2014-Oct-09 20:33N 36°56' W 125°02'2120.5
2014-Oct-09 19:33N 37°09' W 125°22'2520.4
2014-Oct-09 18:19N 37°25' W 125°47'1720.4
2014-Oct-09 17:30N 37°35' W 126°04'2020.3
2014-Oct-09 16:32N 37°47' W 126°24'2020.6
2014-Oct-09 15:33N 37°59' W 126°44'2120.8
2014-Oct-09 14:33N 38°12' W 127°05'2120.8
2014-Oct-09 13:33N 38°25' W 127°25'2121.0
2014-Oct-09 12:33N 38°38' W 127°47'2220.8
2014-Oct-09 11:29N 38°51' W 128°09'2021.0
2014-Oct-09 10:33N 39°03' W 128°30'2621.3
2014-Oct-09 09:19N 39°17' W 128°58'2021.2
2014-Oct-09 08:23N 39°27' W 129°20'  

Dump ship's entire track history